Detroit, Michigan
Current Conditions -  °F | °C
As of 10:00 AM on Friday 19 Dec 2014 (Local Time) from CYQG Reporting Station
Broken Clouds Broken Clouds  
Wind Chill: -7°   Ceiling: 1900
Heat Index: -3°   Visibility: 15mi
Dew Point: -7°   Wind: 7mph
Humidity: 74%   Direction: 10°N
Pressure: 30.28"   Gusts: NA
Location:  42.33°N, 83.05°W
Report Text: CYQG 191500Z 01006KT 15SM BKN019 M03/M07 A3028 RMK SC7 SLP262
Loading
Personal Weather Stations






























Interactive Weather Map New forecast layout! Learn more

10-Day Weather Forecast

Advertisements
Track Severe Weather on mobile